Time;durP1;ratioP1;P1;durP2;ratioP2;P2;SDS_P1;SDS_P2;PMS_P1;PMS_P2;Temp;Humidity;BMP_temperature;BMP_pressure;BME280_temperature;BME280_humidity;BME280_pressure;Samples;Min_cycle;Max_cycle;Signal;HPM_P1;HPM_P2
2021/05/03 00:00:22;;;;;;;1582.13;168.15;;;3.10;99.90;;;;;;4946924;29;20517;-95
2021/05/03 00:02:50;;;;;;;780.67;126.20;;;3.10;99.90;;;;;;4942314;29;20428;-93
2021/05/03 00:05:25;;;;;;;1392.18;144.32;;;3.10;99.90;;;;;;4942538;29;20504;-95
2021/05/03 00:07:54;;;;;;;974.47;132.60;;;3.10;99.90;;;;;;4942633;29;20450;-93
2021/05/03 00:10:21;;;;;;;250.57;94.80;;;3.10;99.90;;;;;;4942956;29;20526;-94
2021/05/03 00:12:48;;;;;;;229.52;96.28;;;3.00;99.90;;;;;;4943231;29;20559;-94
2021/05/03 00:15:17;;;;;;;228.00;95.07;;;3.10;99.90;;;;;;4947957;29;20440;-95
2021/05/03 00:17:44;;;;;;;224.05;92.85;;;3.00;99.90;;;;;;4947994;29;20513;-95
2021/05/03 00:20:12;;;;;;;182.98;82.15;;;3.00;99.90;;;;;;4953892;28;20417;-94
2021/05/03 00:22:39;;;;;;;161.35;79.47;;;3.00;99.90;;;;;;4961784;29;20461;-95
2021/05/03 00:25:06;;;;;;;161.18;80.47;;;3.00;99.90;;;;;;4950962;29;20553;-93
2021/05/03 00:27:35;;;;;;;145.60;76.15;;;3.10;99.90;;;;;;4943837;29;20485;-94
2021/05/03 00:30:03;;;;;;;145.70;78.03;;;3.10;99.90;;;;;;4942616;29;20766;-95
2021/05/03 00:32:30;;;;;;;141.47;72.97;;;3.10;99.90;;;;;;4942362;29;20505;-93
2021/05/03 00:38:39;;;;;;;133.98;71.95;;;3.10;99.90;;;;;;4959609;29;20404;-95
2021/05/03 00:41:06;;;;;;;125.75;69.32;;;3.10;99.90;;;;;;4941707;29;20771;-94
2021/05/03 00:43:34;;;;;;;135.07;73.23;;;3.10;99.90;;;;;;4941934;29;20453;-93
2021/05/03 00:46:00;;;;;;;143.82;75.57;;;3.10;99.90;;;;;;4941503;29;20442;-95
2021/05/03 00:48:27;;;;;;;111.68;66.90;;;3.10;99.90;;;;;;4941048;29;20476;-94
2021/05/03 00:50:54;;;;;;;101.53;61.38;;;3.10;99.90;;;;;;4942414;29;20509;-95
2021/05/03 00:53:21;;;;;;;88.45;55.17;;;3.20;99.90;;;;;;4941518;29;20441;-94
2021/05/03 00:55:48;;;;;;;85.38;54.60;;;3.10;99.90;;;;;;4941163;29;20941;-93
2021/05/03 00:58:15;;;;;;;84.65;52.72;;;3.10;99.90;;;;;;4941959;29;20797;-94
2021/05/03 01:00:42;;;;;;;78.00;53.87;;;3.10;99.90;;;;;;4942886;29;20433;-93
2021/05/03 01:03:09;;;;;;;82.38;54.35;;;3.10;99.90;;;;;;4941353;29;20453;-94
2021/05/03 01:05:37;;;;;;;87.95;55.05;;;3.10;99.90;;;;;;4941905;29;20505;-94
2021/05/03 01:08:04;;;;;;;87.60;55.83;;;3.10;99.90;;;;;;4941173;29;20433;-94
2021/05/03 01:10:31;;;;;;;92.10;57.45;;;3.10;99.90;;;;;;4941344;29;20426;-95
2021/05/03 01:12:59;;;;;;;95.82;59.35;;;3.10;99.90;;;;;;4951576;28;20437;-94
2021/05/03 01:15:26;;;;;;;99.00;61.42;;;3.00;99.90;;;;;;4943783;29;20480;-94
2021/05/03 01:17:56;;;;;;;96.07;60.15;;;3.00;99.90;;;;;;4945912;29;20440;-94
2021/05/03 01:20:25;;;;;;;101.82;62.30;;;3.00;99.90;;;;;;4941718;29;20475;-94
2021/05/03 01:22:56;;;;;;;102.15;60.97;;;3.00;99.90;;;;;;4941231;29;20513;-94
2021/05/03 01:25:31;;;;;;;107.20;63.15;;;3.00;99.90;;;;;;4941300;29;20551;-93
2021/05/03 01:28:04;;;;;;;111.93;65.18;;;3.00;99.90;;;;;;4942066;29;20521;-94
2021/05/03 01:30:33;;;;;;;113.93;65.72;;;3.00;99.90;;;;;;4941086;29;20426;-94
2021/05/03 01:33:00;;;;;;;116.22;66.13;;;3.00;99.90;;;;;;4941261;29;20529;-94
2021/05/03 01:35:29;;;;;;;116.80;67.53;;;3.00;99.90;;;;;;4941057;29;20450;-94
2021/05/03 01:37:57;;;;;;;103.30;61.63;;;2.90;99.90;;;;;;4940634;29;20501;-93
2021/05/03 01:40:26;;;;;;;87.80;56.50;;;2.90;99.90;;;;;;4954053;28;20492;-94
2021/05/03 01:42:53;;;;;;;94.88;60.70;;;2.90;99.90;;;;;;4963023;28;20477;-94
2021/05/03 01:45:26;;;;;;;94.30;60.22;;;3.00;99.90;;;;;;4959091;28;20430;-94
2021/05/03 01:47:54;;;;;;;87.85;56.08;;;3.00;99.90;;;;;;4949469;29;20445;-94
2021/05/03 01:50:22;;;;;;;89.40;57.83;;;3.00;99.90;;;;;;4942729;29;20437;-93
2021/05/03 01:52:53;;;;;;;85.55;55.13;;;2.90;99.90;;;;;;4940410;29;20538;-95
2021/05/03 01:55:20;;;;;;;80.95;52.70;;;2.90;99.90;;;;;;4958161;29;20442;-95
2021/05/03 01:57:49;;;;;;;81.43;54.65;;;2.90;99.90;;;;;;4944386;28;20461;-94
2021/05/03 02:00:17;;;;;;;86.30;55.05;;;2.90;99.90;;;;;;4940159;29;20429;-94
2021/05/03 02:02:48;;;;;;;88.90;56.05;;;2.80;99.90;;;;;;4940333;29;20437;-94
2021/05/03 02:05:23;;;;;;;85.72;54.55;;;2.90;99.90;;;;;;4939704;29;20467;-93
2021/05/03 02:08:03;;;;;;;94.57;59.00;;;2.90;99.90;;;;;;4939573;29;20458;-96
2021/05/03 02:10:31;;;;;;;90.13;55.05;;;2.90;99.90;;;;;;4940027;29;20929;-95
2021/05/03 02:12:59;;;;;;;105.30;62.17;;;2.90;99.90;;;;;;4943257;29;20484;-94
2021/05/03 02:15:30;;;;;;;108.55;63.58;;;2.90;99.90;;;;;;4940981;29;20436;-93
2021/05/03 02:17:57;;;;;;;105.07;62.38;;;2.80;99.90;;;;;;4941416;29;20453;-93
2021/05/03 02:20:24;;;;;;;115.28;65.85;;;2.80;99.90;;;;;;4940705;29;20814;-94
2021/05/03 02:22:52;;;;;;;122.07;67.60;;;2.70;99.90;;;;;;4942653;29;20838;-94
2021/05/03 02:25:19;;;;;;;135.05;68.80;;;2.70;99.90;;;;;;4924629;29;20933;-94
2021/05/03 02:27:47;;;;;;;135.05;69.20;;;2.50;99.90;;;;;;4944311;29;20518;-94
2021/05/03 02:30:16;;;;;;;142.65;72.05;;;2.50;99.90;;;;;;4940769;29;20444;-95
2021/05/03 02:32:45;;;;;;;153.95;72.57;;;2.50;99.90;;;;;;4941253;29;20533;-93
2021/05/03 02:35:16;;;;;;;156.07;74.20;;;2.50;99.90;;;;;;4941160;29;20430;-93
2021/05/03 02:37:46;;;;;;;164.80;76.13;;;2.40;99.90;;;;;;4939890;29;20438;-94
2021/05/03 02:40:15;;;;;;;164.95;77.57;;;2.50;99.90;;;;;;4958754;29;20421;-94
2021/05/03 02:42:44;;;;;;;174.55;78.25;;;2.40;99.90;;;;;;4943995;29;20426;-93
2021/05/03 02:45:12;;;;;;;185.93;79.68;;;2.30;99.90;;;;;;4942824;29;20517;-94
2021/05/03 02:47:40;;;;;;;206.20;84.00;;;2.20;99.90;;;;;;4955002;28;20433;-94
2021/05/03 02:50:08;;;;;;;208.00;86.85;;;2.20;99.90;;;;;;4957667;29;20473;-93
2021/05/03 02:52:37;;;;;;;220.23;87.00;;;2.20;99.90;;;;;;4945732;29;20434;-94
2021/05/03 02:55:08;;;;;;;229.77;88.83;;;2.20;99.90;;;;;;4940837;29;20430;-94
2021/05/03 02:57:35;;;;;;;225.27;89.32;;;2.20;99.90;;;;;;4940526;29;20940;-94
2021/05/03 03:00:07;;;;;;;242.20;93.40;;;2.20;99.90;;;;;;4940115;29;20848;-93
2021/05/03 03:02:34;;;;;;;255.20;92.07;;;2.10;99.90;;;;;;4941630;29;20430;-92
2021/05/03 03:05:01;;;;;;;277.27;98.13;;;2.10;99.90;;;;;;4940623;29;20470;-94
2021/05/03 03:07:29;;;;;;;268.23;93.82;;;2.00;99.90;;;;;;4959011;28;20485;-94
2021/05/03 03:09:56;;;;;;;289.60;95.95;;;2.00;99.90;;;;;;4949960;28;20417;-94
2021/05/03 03:12:23;;;;;;;308.05;97.55;;;2.00;99.90;;;;;;4944100;29;20434;-93
2021/05/03 03:14:50;;;;;;;318.77;100.30;;;2.00;99.90;;;;;;4943880;29;20436;-94
2021/05/03 03:17:17;;;;;;;332.02;104.20;;;2.00;99.90;;;;;;4963940;28;20453;-94
2021/05/03 03:19:44;;;;;;;340.03;103.60;;;2.00;99.90;;;;;;4943703;28;20464;-94
2021/05/03 03:22:12;;;;;;;303.05;97.75;;;2.10;99.90;;;;;;4943799;29;20430;-94
2021/05/03 03:24:39;;;;;;;307.67;101.35;;;2.20;99.90;;;;;;4943870;29;20812;-94
2021/05/03 03:27:05;;;;;;;380.50;103.27;;;2.20;99.90;;;;;;4943072;29;20433;-95
2021/05/03 03:29:33;;;;;;;407.90;105.35;;;2.20;99.90;;;;;;4944305;29;20428;-93
2021/05/03 03:32:00;;;;;;;438.87;105.27;;;2.20;99.90;;;;;;4943620;29;20425;-93
2021/05/03 03:34:26;;;;;;;913.67;128.40;;;2.10;99.90;;;;;;4943882;29;20434;-94
2021/05/03 03:37:04;;;;;;;1558.45;156.88;;;2.10;99.90;;;;;;4944188;29;20433;-94
2021/05/03 03:39:32;;;;;;;1999.90;196.60;;;2.10;99.90;;;;;;4943815;29;20429;-94
2021/05/03 03:41:58;;;;;;;1999.90;192.70;;;2.00;99.90;;;;;;4943016;29;20853;-94
2021/05/03 03:44:25;;;;;;;1999.90;196.95;;;2.00;99.90;;;;;;4943034;29;20513;-94
2021/05/03 03:46:52;;;;;;;1999.90;239.40;;;2.00;99.90;;;;;;4942714;29;20494;-94
2021/05/03 03:49:21;;;;;;;1999.90;206.07;;;1.90;99.90;;;;;;4943876;29;20517;-95
2021/05/03 03:51:49;;;;;;;1999.90;204.77;;;2.00;99.90;;;;;;4943814;29;20436;-94
2021/05/03 03:54:17;;;;;;;1999.90;185.23;;;1.90;99.90;;;;;;4943448;29;20456;-93
2021/05/03 03:56:44;;;;;;;1999.90;210.50;;;1.80;99.90;;;;;;4926664;29;20514;-93
2021/05/03 03:59:11;;;;;;;1999.90;229.95;;;1.70;99.90;;;;;;4945915;29;20459;-94
2021/05/03 04:01:38;;;;;;;1999.90;228.10;;;1.70;99.90;;;;;;4944826;29;20425;-94
2021/05/03 04:04:16;;;;;;;589.67;116.25;;;1.60;99.90;;;;;;4945397;29;20442;-93
2021/05/03 04:09:15;;;;;;;415.58;109.25;;;1.60;99.90;;;;;;4958912;28;20432;-94
2021/05/03 04:23:01;;;;;;;921.13;135.95;;;1.50;99.90;;;;;;4959731;28;20453;-94
2021/05/03 04:28:01;;;;;;;818.65;124.88;;;1.50;99.90;;;;;;4942731;29;20433;-92
2021/05/03 04:30:27;;;;;;;1535.80;168.57;;;1.60;99.90;;;;;;4942298;29;20988;-92
2021/05/03 04:32:54;;;;;;;1999.90;247.02;;;1.60;99.90;;;;;;4948942;29;20570;-94
2021/05/03 04:35:22;;;;;;;1999.90;228.65;;;1.60;99.90;;;;;;4943854;29;20429;-92
2021/05/03 04:37:49;;;;;;;1999.90;222.45;;;1.70;99.90;;;;;;4943345;29;20432;-93
2021/05/03 04:40:15;;;;;;;1999.90;277.13;;;1.60;99.90;;;;;;4944795;29;20430;-93
2021/05/03 04:42:45;;;;;;;1999.90;262.20;;;1.70;99.90;;;;;;4960399;28;20433;-94
2021/05/03 04:45:15;;;;;;;1903.03;158.15;;;1.80;99.90;;;;;;4943217;29;20437;-94
2021/05/03 04:47:43;;;;;;;1328.25;142.23;;;1.70;99.90;;;;;;4960213;29;20512;-94
2021/05/03 04:50:13;;;;;;;1999.90;175.48;;;1.70;99.90;;;;;;4943291;29;20512;-94
2021/05/03 04:52:40;;;;;;;1292.68;142.40;;;1.80;99.90;;;;;;4943155;29;20497;-95
2021/05/03 04:55:08;;;;;;;290.52;92.50;;;1.80;99.90;;;;;;4941898;29;20513;-93
2021/05/03 04:57:35;;;;;;;263.55;92.10;;;1.70;99.90;;;;;;4960093;28;20513;-94
2021/05/03 05:00:04;;;;;;;291.52;100.25;;;1.80;99.90;;;;;;4957799;28;20501;-95
2021/05/03 05:02:31;;;;;;;278.10;97.53;;;1.80;99.90;;;;;;4956432;28;20914;-93
2021/05/03 05:05:01;;;;;;;210.23;85.80;;;2.00;99.90;;;;;;4943700;29;20914;-94
2021/05/03 05:07:30;;;;;;;191.40;80.32;;;2.10;99.90;;;;;;4942456;29;20436;-93
2021/05/03 05:09:57;;;;;;;173.07;75.53;;;2.20;99.90;;;;;;4941880;29;20445;-94
2021/05/03 05:12:25;;;;;;;138.13;67.30;;;2.30;99.90;;;;;;4949119;29;20434;-94
2021/05/03 05:14:52;;;;;;;109.07;59.15;;;2.40;99.90;;;;;;4961376;28;20417;-93
2021/05/03 05:17:20;;;;;;;92.00;54.17;;;2.40;99.90;;;;;;4962030;28;20420;-94
2021/05/03 05:19:47;;;;;;;82.18;51.38;;;2.50;99.90;;;;;;4943857;28;20767;-94
2021/05/03 05:22:15;;;;;;;72.70;46.78;;;2.50;99.90;;;;;;4942573;29;21001;-95
2021/05/03 05:24:42;;;;;;;63.67;43.25;;;2.70;99.90;;;;;;4941961;29;20440;-95
2021/05/03 05:27:11;;;;;;;66.13;45.27;;;2.90;99.90;;;;;;4941847;29;20486;-94
2021/05/03 05:29:39;;;;;;;60.90;42.63;;;2.80;99.90;;;;;;4944808;29;20856;-96
2021/05/03 05:32:07;;;;;;;59.45;42.05;;;2.90;99.90;;;;;;4943192;29;20480;-96
2021/05/03 05:34:34;;;;;;;61.53;43.10;;;2.90;99.90;;;;;;4929456;29;20441;-95
2021/05/03 05:37:02;;;;;;;59.38;42.33;;;2.80;99.90;;;;;;4942003;29;20422;-94
2021/05/03 05:39:28;;;;;;;68.78;44.10;;;2.70;99.90;;;;;;4942986;29;20454;-94
2021/05/03 05:41:56;;;;;;;58.92;41.17;;;2.80;99.90;;;;;;4941994;29;20551;-94
2021/05/03 05:48:16;;;;;;;52.05;36.70;;;3.20;99.90;;;;;;4977773;28;20494;-94
2021/05/03 05:50:43;;;;;;;55.10;39.15;;;3.30;99.90;;;;;;4955764;29;20513;-95
2021/05/03 05:53:09;;;;;;;54.40;39.03;;;3.20;99.90;;;;;;4945309;29;20517;-93
2021/05/03 05:55:36;;;;;;;69.20;47.15;;;3.30;99.90;;;;;;4944712;29;20703;-95
2021/05/03 05:58:03;;;;;;;57.63;40.05;;;3.60;99.90;;;;;;4940943;29;20789;-94
2021/05/03 06:00:29;;;;;;;44.97;34.80;;;3.90;99.90;;;;;;4940315;29;20422;-94
2021/05/03 06:02:56;;;;;;;49.78;36.33;;;4.00;99.90;;;;;;4940184;29;20453;-94
2021/05/03 06:05:24;;;;;;;46.58;35.53;;;3.90;99.90;;;;;;4939861;29;21015;-94
2021/05/03 06:07:51;;;;;;;46.47;35.20;;;3.70;99.90;;;;;;4946262;29;20572;-93
2021/05/03 06:10:18;;;;;;;39.40;30.73;;;4.10;99.90;;;;;;4940679;29;20430;-94
2021/05/03 06:12:45;;;;;;;38.05;28.30;;;4.50;99.90;;;;;;4939724;29;20434;-94
2021/05/03 06:15:11;;;;;;;30.67;24.17;;;4.60;99.90;;;;;;4941293;29;20436;-94
2021/05/03 06:17:38;;;;;;;29.60;23.05;;;5.90;99.90;;;;;;4940019;29;20988;-95
2021/05/03 06:20:06;;;;;;;28.40;22.73;;;7.10;99.90;;;;;;4940315;29;20423;-95
2021/05/03 06:22:34;;;;;;;29.02;22.88;;;7.10;99.90;;;;;;4940645;29;20441;-94
2021/05/03 06:25:02;;;;;;;31.25;25.45;;;6.40;99.90;;;;;;4941080;29;20453;-94
2021/05/03 06:31:19;;;;;;;22.80;17.75;;;7.10;99.90;;;;;;4960634;29;20535;-95
2021/05/03 06:33:55;;;;;;;17.77;13.93;;;8.10;99.90;;;;;;4945609;29;20448;-96
2021/05/03 06:36:22;;;;;;;19.20;14.27;;;8.50;99.90;;;;;;4941174;29;20438;-95
2021/05/03 06:38:49;;;;;;;20.02;15.25;;;9.30;99.90;;;;;;4942129;29;20425;-96
2021/05/03 06:41:19;;;;;;;24.02;16.80;;;9.10;99.90;;;;;;4990283;23;20442;-94
2021/05/03 06:43:46;;;;;;;24.05;19.15;;;8.30;99.90;;;;;;4939577;29;20459;-95
2021/05/03 06:46:24;;;;;;;25.15;18.35;;;7.20;99.90;;;;;;4944659;29;20974;-95
2021/05/03 06:48:51;;;;;;;22.95;18.10;;;6.20;99.90;;;;;;4942419;29;20428;-95
2021/05/03 06:51:18;;;;;;;32.03;19.73;;;6.00;99.90;;;;;;4943774;29;20419;-96
2021/05/03 06:53:53;;;;;;;22.02;16.45;;;5.90;99.90;;;;;;4955674;28;20490;-96
2021/05/03 06:56:20;;;;;;;19.60;16.40;;;6.60;99.90;;;;;;4954198;28;20443;-95
2021/05/03 06:58:47;;;;;;;19.38;15.02;;;7.00;99.90;;;;;;4940627;29;20440;-96
2021/05/03 07:01:14;;;;;;;24.90;17.33;;;6.70;99.90;;;;;;4940641;29;20487;-94
2021/05/03 07:03:43;;;;;;;19.90;15.55;;;6.60;99.90;;;;;;4923049;29;20435;-95
2021/05/03 07:09:08;;;;;;;19.38;15.43;;;5.90;99.90;;;;;;4900975;29;20483;-94
2021/05/03 07:11:36;;;;;;;21.33;15.43;;;6.30;99.90;;;;;;4901524;29;20844;-95
2021/05/03 07:14:04;;;;;;;22.40;14.52;;;7.20;99.90;;;;;;4899650;29;20530;-95
2021/05/03 07:16:32;;;;;;;18.60;14.07;;;7.20;99.90;;;;;;4900684;29;20494;-95
2021/05/03 07:18:58;;;;;;;23.60;15.40;;;6.20;99.90;;;;;;4884256;29;20437;-94
2021/05/03 07:21:25;;;;;;;23.02;16.42;;;6.20;99.90;;;;;;4883964;29;20439;-95
2021/05/03 07:23:53;;;;;;;20.75;15.25;;;6.60;99.90;;;;;;4865887;29;20440;-93
2021/05/03 07:26:20;;;;;;;17.95;14.82;;;6.30;99.90;;;;;;4866459;29;20437;-94
2021/05/03 07:28:48;;;;;;;20.77;16.15;;;6.70;99.90;;;;;;4865952;29;20440;-95
2021/05/03 07:31:15;;;;;;;25.33;18.40;;;6.20;99.90;;;;;;4867227;29;20508;-95
2021/05/03 07:33:44;;;;;;;26.42;19.73;;;5.80;99.90;;;;;;4870258;29;20449;-95
2021/05/03 07:36:15;;;;;;;29.73;22.58;;;5.10;99.90;;;;;;4870375;29;20443;-95
2021/05/03 07:38:42;;;;;;;25.43;19.97;;;4.70;99.90;;;;;;4889533;29;20428;-94
2021/05/03 07:41:08;;;;;;;25.83;19.98;;;4.70;99.90;;;;;;4883667;29;20452;-94
2021/05/03 07:47:25;;;;;;;21.42;16.25;;;6.00;99.90;;;;;;4882984;29;20560;-94
2021/05/03 07:49:54;;;;;;;17.50;13.75;;;6.80;99.90;;;;;;4865454;29;20493;-95
2021/05/03 07:52:20;;;;;;;17.08;11.35;;;6.70;99.90;;;;;;4866561;29;20511;-93
2021/05/03 07:54:47;;;;;;;16.63;12.05;;;6.30;99.90;;;;;;4865360;29;20447;-94
2021/05/03 07:57:17;;;;;;;17.50;13.20;;;5.80;99.90;;;;;;4883995;29;20508;-94
2021/05/03 07:59:44;;;;;;;16.10;11.75;;;5.70;99.90;;;;;;4868916;29;20492;-95
2021/05/03 08:02:10;;;;;;;10.52;7.22;;;6.10;99.90;;;;;;4869744;29;20504;-95
2021/05/03 08:04:38;;;;;;;14.53;9.77;;;6.10;99.90;;;;;;4870044;29;20428;-94
2021/05/03 08:07:05;;;;;;;16.90;11.05;;;6.20;99.90;;;;;;4867859;29;20452;-93
2021/05/03 08:09:32;;;;;;;15.98;10.43;;;6.60;99.90;;;;;;4882885;29;20528;-95
2021/05/03 08:11:58;;;;;;;13.40;9.15;;;6.70;99.90;;;;;;4867678;29;20504;-94
2021/05/03 08:14:26;;;;;;;14.27;10.20;;;7.00;99.90;;;;;;4883145;29;20464;-94
2021/05/03 08:17:00;;;;;;;14.77;10.40;;;7.20;99.90;;;;;;4867088;29;20436;-94
2021/05/03 08:19:28;;;;;;;15.75;11.68;;;7.00;99.90;;;;;;4867480;29;20436;-94
2021/05/03 08:21:58;;;;;;;12.98;9.05;;;7.00;99.90;;;;;;4866676;29;20487;-93
2021/05/03 08:24:29;;;;;;;10.77;6.47;;;6.90;99.90;;;;;;4869002;29;20432;-94
2021/05/03 08:26:57;;;;;;;12.07;8.90;;;6.50;99.90;;;;;;4867370;29;20433;-96
2021/05/03 08:29:24;;;;;;;14.50;8.87;;;6.20;99.90;;;;;;4867438;29;20437;-95
2021/05/03 08:32:01;;;;;;;13.82;8.55;;;6.30;99.90;;;;;;4884652;29;20922;-94
2021/05/03 08:34:33;;;;;;;12.27;8.57;;;6.60;99.90;;;;;;4869124;29;20999;-96
2021/05/03 08:36:59;;;;;;;16.23;9.68;;;6.50;99.90;;;;;;4870950;29;20428;-94
2021/05/03 08:39:27;;;;;;;13.02;9.00;;;6.80;99.90;;;;;;4870462;29;20464;-95
2021/05/03 08:41:59;;;;;;;15.00;7.60;;;7.00;99.90;;;;;;4868054;29;20445;-94
2021/05/03 08:44:28;;;;;;;9.77;6.47;;;6.60;99.90;;;;;;4868262;29;20615;-93
2021/05/03 08:46:58;;;;;;;11.48;8.77;;;6.90;99.90;;;;;;4876621;29;20416;-94
2021/05/03 08:49:33;;;;;;;13.23;8.18;;;7.80;99.90;;;;;;4883842;29;20925;-95
2021/05/03 08:52:57;;;;;;;11.18;7.65;;;8.70;99.90;;;;;;4872403;29;20452;-94
2021/05/03 08:55:34;;;;;;;12.23;7.47;;;8.80;99.90;;;;;;4883508;29;20425;-96
2021/05/03 08:58:06;;;;;;;10.57;6.43;;;8.50;99.90;;;;;;4868301;29;20443;-95
2021/05/03 09:00:33;;;;;;;13.75;8.10;;;7.60;99.90;;;;;;4869263;29;20437;-95
2021/05/03 09:03:11;;;;;;;13.13;7.32;;;6.80;99.90;;;;;;4869498;29;20433;-94
2021/05/03 09:05:43;;;;;;;12.25;7.40;;;6.80;99.90;;;;;;4867307;29;20543;-94
2021/05/03 09:13:36;;;;;;;9.40;6.88;;;7.00;99.90;;;;;;5117330;28;20440;-96
2021/05/03 09:16:22;;;;;;;8.40;4.90;;;7.10;99.90;;;;;;5100966;28;20413;-95
2021/05/03 09:18:50;;;;;;;11.30;7.47;;;6.70;99.90;;;;;;5100148;28;20433;-95
2021/05/03 09:21:31;;;;;;;12.05;7.70;;;6.30;99.90;;;;;;5099486;28;20429;-96
2021/05/03 09:24:22;;;;;;;13.68;8.43;;;6.20;99.90;;;;;;5082993;28;20417;-96
2021/05/03 09:27:04;;;;;;;11.23;7.30;;;7.10;99.90;;;;;;5104272;28;20421;-96
2021/05/03 09:29:39;;;;;;;11.32;7.60;;;7.60;99.90;;;;;;5103575;28;20441;-96
2021/05/03 09:32:29;;;;;;;11.73;8.05;;;7.70;99.90;;;;;;5101528;28;20413;-96
2021/05/03 09:34:56;;;;;;;10.48;7.30;;;7.60;99.90;;;;;;5102624;28;20421;-96
2021/05/03 14:24:00;;;;;;;;;;;;;;;;;;;;;
2021/05/03 14:46:14;;;;;;;7.70;5.23;;;11.50;89.60;;;;;;5072998;23;20439;-96
2021/05/03 16:40:33;;;;;;;11.95;5.15;;;10.80;79.40;;;;;;6024508;23;20374;31
2021/05/03 16:58:43;;;;;;;6.70;4.87;;;9.50;88.30;;;;;;6026608;23;20394;31
2021/05/03 23:18:14;;;;;;;25.98;18.75;;;2.10;99.90;;;;;;4903205;29;20981;-95
2021/05/03 23:21:58;;;;;;;30.58;20.60;;;2.00;99.90;;;;;;4792195;29;20441;-95
2021/05/03 23:28:32;;;;;;;28.95;19.75;;;2.00;99.90;;;;;;4803499;30;20492;-95
2021/05/03 23:40:46;;;;;;;29.55;19.27;;;1.90;99.90;;;;;;5425354;23;20429;-95
2021/05/03 23:44:25;;;;;;;29.70;20.95;;;1.90;99.90;;;;;;4929513;29;20420;-95
2021/05/03 23:48:04;;;;;;;28.40;19.90;;;2.00;99.90;;;;;;4916074;29;20429;-94
2021/05/03 23:51:11;;;;;;;28.33;19.13;;;2.00;99.90;;;;;;4898406;29;20419;-93
